createdAt,value
2023-01-17T00:02:10.966Z,97486.34
2023-01-17T00:04:37.396Z,97478.59
2023-01-17T00:07:03.882Z,97467.41
2023-01-17T00:09:30.311Z,97477.88
2023-01-17T00:11:56.990Z,97472.38
2023-01-17T00:14:23.461Z,97468.81
2023-01-17T00:16:49.913Z,97467.97
2023-01-17T00:19:16.478Z,97474.00
2023-01-17T00:21:42.884Z,97464.38
2023-01-17T00:24:09.304Z,97467.09
2023-01-17T00:26:35.734Z,97465.50
2023-01-17T00:29:02.156Z,97470.69
2023-01-17T00:31:28.670Z,97471.63
2023-01-17T00:33:55.162Z,97467.09
2023-01-17T00:36:27.934Z,97468.91
2023-01-17T00:38:56.804Z,97463.91
2023-01-17T00:41:23.275Z,97453.53
2023-01-17T00:43:49.677Z,97446.19
2023-01-17T00:46:16.235Z,97455.97
2023-01-17T00:48:42.737Z,97455.88
2023-01-17T00:51:09.145Z,97452.56
2023-01-17T00:53:35.651Z,97453.41
2023-01-17T00:56:03.048Z,97459.53
2023-01-17T00:58:29.506Z,97452.56
2023-01-17T01:00:56.007Z,97442.31
2023-01-17T01:03:22.519Z,97447.69
2023-01-17T01:05:48.930Z,97450.03
2023-01-17T01:08:24.427Z,97450.88
2023-01-17T01:10:50.851Z,97442.47
2023-01-17T01:13:17.325Z,97449.16
2023-01-17T01:15:43.755Z,97446.53
2023-01-17T01:18:11.273Z,97446.44
2023-01-17T01:20:37.685Z,97446.44
2023-01-17T01:23:05.330Z,97444.66
2023-01-17T01:25:31.743Z,97444.00
2023-01-17T01:28:12.205Z,97445.59
2023-01-17T01:30:38.626Z,97451.94
2023-01-17T01:33:09.395Z,97448.31
2023-01-17T01:35:36.542Z,97444.94
2023-01-17T01:38:03.356Z,97449.16
2023-01-17T01:40:30.008Z,97443.72
2023-01-17T01:42:58.294Z,97443.72
2023-01-17T01:45:26.557Z,97444.66
2023-01-17T01:48:34.600Z,97438.44
2023-01-17T01:51:03.618Z,97439.38
2023-01-17T01:53:30.291Z,97433.47
2023-01-17T01:55:56.744Z,97433.34
2023-01-17T01:58:24.715Z,97437.69
2023-01-17T02:00:51.237Z,97442.03
2023-01-17T02:03:21.121Z,97437.75
2023-01-17T02:05:47.537Z,97433.34
2023-01-17T02:08:18.002Z,97432.63
2023-01-17T02:10:44.445Z,97431.63
2023-01-17T02:13:11.339Z,97437.97
2023-01-17T02:15:56.646Z,97428.63
2023-01-17T02:18:29.063Z,97432.41
2023-01-17T02:21:19.942Z,97434.91
2023-01-17T02:24:13.747Z,97429.66
2023-01-17T02:27:03.296Z,97429.47
2023-01-17T02:29:53.969Z,97425.97
2023-01-17T02:32:44.384Z,97431.16
2023-01-17T02:35:24.905Z,97431.09
2023-01-17T02:38:14.441Z,97427.59
2023-01-17T02:40:52.562Z,97432.88
2023-01-17T02:43:18.975Z,97431.00
2023-01-17T02:45:45.427Z,97422.06
2023-01-17T02:48:13.603Z,97419.31
2023-01-17T02:51:15.928Z,97427.34
2023-01-17T02:53:59.364Z,97429.00
2023-01-17T02:57:07.972Z,97428.28
2023-01-17T02:59:58.918Z,97429.97
2023-01-17T03:03:02.427Z,97429.97
2023-01-17T03:05:47.101Z,97431.84
2023-01-17T03:08:13.497Z,97429.00
2023-01-17T03:10:39.953Z,97430.91
2023-01-17T03:13:06.369Z,97433.53
2023-01-17T03:15:32.801Z,97429.28
2023-01-17T03:18:02.002Z,97427.41
2023-01-17T03:20:28.434Z,97423.94
2023-01-17T03:22:54.927Z,97429.00
2023-01-17T03:25:21.383Z,97431.28
2023-01-17T03:27:47.816Z,97432.22
2023-01-17T03:30:14.248Z,97439.56
2023-01-17T03:32:40.666Z,97421.22
2023-01-17T03:35:07.327Z,97434.19
2023-01-17T03:37:33.767Z,97434.28
2023-01-17T03:40:00.169Z,97436.75
2023-01-17T03:42:26.604Z,97441.25
2023-01-17T03:44:53.013Z,97447.47
2023-01-17T03:47:19.443Z,97443.25
2023-01-17T03:49:45.895Z,97444.09
2023-01-17T03:52:12.286Z,97441.63
2023-01-17T03:54:38.728Z,97445.81
2023-01-17T03:57:05.134Z,97446.53
2023-01-17T03:59:31.588Z,97458.03
2023-01-17T04:01:58.073Z,97451.06
2023-01-17T04:04:24.527Z,97457.47
2023-01-17T04:06:50.925Z,97450.28
2023-01-17T04:09:17.384Z,97453.38
2023-01-17T04:11:43.773Z,97456.44
2023-01-17T04:14:10.167Z,97451.91
2023-01-17T04:16:36.791Z,97456.63
2023-01-17T04:19:03.261Z,97463.94
2023-01-17T04:21:29.684Z,97467.88
2023-01-17T04:23:56.109Z,97463.72
2023-01-17T04:26:22.543Z,97454.09
2023-01-17T04:28:48.971Z,97467.56
2023-01-17T04:31:16.540Z,97465.78
2023-01-17T04:33:43.071Z,97470.13
2023-01-17T04:36:09.668Z,97461.28
2023-01-17T04:38:36.074Z,97465.78
2023-01-17T04:41:02.511Z,97472.06
2023-01-17T04:43:28.920Z,97471.31
2023-01-17T04:45:56.256Z,97477.34
2023-01-17T04:48:22.783Z,97483.72
2023-01-17T04:50:49.211Z,97475.72
2023-01-17T04:53:15.721Z,97484.47
2023-01-17T04:55:45.478Z,97481.16
2023-01-17T04:58:11.956Z,97487.19
2023-01-17T05:00:38.380Z,97485.50
2023-01-17T05:03:04.785Z,97487.03
2023-01-17T05:05:31.209Z,97488.81
2023-01-17T05:07:57.845Z,97491.19
2023-01-17T05:10:24.810Z,97495.44
2023-01-17T05:12:58.208Z,97497.97
2023-01-17T05:15:24.960Z,97497.91
2023-01-17T05:17:51.937Z,97505.63
2023-01-17T05:20:19.195Z,97504.88
2023-01-17T05:22:45.620Z,97510.81
2023-01-17T05:25:12.030Z,97517.88
2023-01-17T05:27:38.506Z,97508.19
2023-01-17T05:30:05.481Z,97514.31
2023-01-17T05:32:31.938Z,97523.81
2023-01-17T05:34:58.343Z,97530.78
2023-01-17T05:37:24.782Z,97532.47
2023-01-17T05:39:51.272Z,97543.72
2023-01-17T05:42:17.689Z,97546.53
2023-01-17T05:44:44.129Z,97557.84
2023-01-17T05:47:10.608Z,97551.94
2023-01-17T05:49:37.008Z,97564.81
2023-01-17T05:52:03.501Z,97571.44
2023-01-17T05:54:29.951Z,97584.72
2023-01-17T05:56:56.400Z,97585.88
2023-01-17T05:59:32.383Z,97594.16
2023-01-17T06:02:03.205Z,97595.31
2023-01-17T06:04:29.658Z,97616.81
2023-01-17T06:06:56.117Z,97612.09
2023-01-17T06:09:22.509Z,97626.84
2023-01-17T06:11:48.930Z,97633.63
2023-01-17T06:14:15.396Z,97635.50
2023-01-17T06:16:41.940Z,97635.50
2023-01-17T06:19:08.394Z,97653.00
2023-01-17T06:21:34.842Z,97655.00
2023-01-17T06:24:03.295Z,97668.50
2023-01-17T06:26:30.605Z,97676.97
2023-01-17T06:28:57.062Z,97681.22
2023-01-17T06:31:23.468Z,97681.84
2023-01-17T06:33:49.935Z,97696.09
2023-01-17T06:36:16.436Z,97700.66
2023-01-17T06:38:42.918Z,97696.56
2023-01-17T06:41:09.508Z,97715.31
2023-01-17T06:43:35.989Z,97723.13
2023-01-17T06:46:02.484Z,97713.31
2023-01-17T06:48:28.959Z,97729.19
2023-01-17T06:50:57.495Z,97730.78
2023-01-17T06:53:23.982Z,97729.19
2023-01-17T06:55:50.467Z,97738.16
2023-01-17T06:58:16.906Z,97743.94
2023-01-17T07:00:43.355Z,97753.00
2023-01-17T07:03:18.252Z,97758.22
2023-01-17T07:05:44.715Z,97770.44
2023-01-17T07:08:11.148Z,97776.41
2023-01-17T07:10:37.558Z,97785.53
2023-01-17T07:13:04.013Z,97790.88
2023-01-17T07:15:30.446Z,97795.06
2023-01-17T07:17:56.948Z,97789.34
2023-01-17T07:20:23.359Z,97789.03
2023-01-17T07:22:49.806Z,97798.63
2023-01-17T07:25:16.296Z,97810.94
2023-01-17T07:27:42.728Z,97812.72
2023-01-17T07:30:09.878Z,97815.81
2023-01-17T07:32:36.284Z,97818.53
2023-01-17T07:35:03.960Z,97823.88
2023-01-17T07:37:30.367Z,97834.19
2023-01-17T07:39:56.809Z,97837.53
2023-01-17T07:42:24.176Z,97845.19
2023-01-17T07:44:50.898Z,97845.41
2023-01-17T07:47:17.308Z,97859.06
2023-01-17T07:49:43.744Z,97860.78
2023-01-17T07:52:10.158Z,97877.28
2023-01-17T07:54:36.600Z,97896.06
2023-01-17T07:57:03.160Z,97892.19
2023-01-17T07:59:29.602Z,97890.72
2023-01-17T08:01:56.104Z,97900.53
2023-01-17T08:04:25.768Z,97913.75
2023-01-17T08:06:52.203Z,97927.69
2023-01-17T08:09:18.655Z,97943.06
2023-01-17T08:11:45.039Z,97937.09
2023-01-17T08:14:11.451Z,97922.16
2023-01-17T08:16:37.966Z,97921.81
2023-01-17T08:19:04.366Z,97924.44
2023-01-17T08:21:30.835Z,97922.09
2023-01-17T08:23:57.240Z,97920.50
2023-01-17T08:26:23.706Z,97926.84
2023-01-17T08:28:57.359Z,97931.41
2023-01-17T08:31:24.003Z,97938.94
2023-01-17T08:33:50.493Z,97944.19
2023-01-17T08:36:16.995Z,97939.66
2023-01-17T08:38:43.439Z,97951.28
2023-01-17T08:41:11.188Z,97952.69
2023-01-17T08:43:37.599Z,97959.66
2023-01-17T08:46:04.184Z,97960.72
2023-01-17T08:48:33.070Z,97974.00
2023-01-17T08:51:06.114Z,97976.00
2023-01-17T08:53:32.755Z,97979.06
2023-01-17T08:56:00.881Z,97988.47
2023-01-17T08:58:30.294Z,97996.38
2023-01-17T09:01:01.475Z,98002.34
2023-01-17T09:03:28.015Z,97995.28
2023-01-17T09:06:11.569Z,97996.22
2023-01-17T09:08:38.177Z,98000.00
2023-01-17T09:11:11.272Z,97996.81
2023-01-17T09:13:38.058Z,98005.41
2023-01-17T09:16:04.860Z,98006.13
2023-01-17T09:18:31.554Z,98008.69
2023-01-17T09:20:58.153Z,98018.94
2023-01-17T09:23:28.074Z,98025.47
2023-01-17T09:25:54.691Z,98033.19
2023-01-17T09:28:21.282Z,98039.50
2023-01-17T09:30:47.923Z,98049.25
2023-01-17T09:33:14.846Z,98048.69
2023-01-17T09:35:41.273Z,98057.50
2023-01-17T09:38:07.761Z,98055.44
2023-01-17T09:40:34.229Z,98067.03
2023-01-17T09:43:02.082Z,98056.78
2023-01-17T09:45:30.229Z,98055.47
2023-01-17T09:47:56.675Z,98071.03
2023-01-17T09:50:32.124Z,98057.06
2023-01-17T09:53:06.956Z,98067.59
2023-01-17T09:56:03.718Z,98069.16
2023-01-17T09:59:02.292Z,98078.34
2023-01-17T10:01:38.866Z,98071.91
2023-01-17T10:04:19.983Z,98070.75
2023-01-17T10:07:24.030Z,98072.47
2023-01-17T10:10:05.565Z,98076.88
2023-01-17T10:12:53.902Z,98079.56
2023-01-17T10:16:03.154Z,98083.28
2023-01-17T10:18:57.549Z,98088.31
2023-01-17T10:21:45.552Z,98097.69
2023-01-17T10:24:44.985Z,98098.44
2023-01-17T10:27:21.662Z,98103.66
2023-01-17T10:29:48.164Z,98092.47
2023-01-17T10:32:14.674Z,98094.88
2023-01-17T10:34:47.644Z,98094.75
2023-01-17T10:37:30.640Z,98106.34
2023-01-17T10:39:57.967Z,98109.94
2023-01-17T10:42:40.847Z,98101.06
2023-01-17T10:45:18.164Z,98112.13
2023-01-17T10:47:48.133Z,98123.97
2023-01-17T10:50:14.768Z,98120.97
2023-01-17T10:52:57.160Z,98126.03
2023-01-17T10:55:29.503Z,98127.91
2023-01-17T10:57:56.020Z,98126.19
2023-01-17T11:00:25.036Z,98130.53
2023-01-17T11:02:51.602Z,98130.94
2023-01-17T11:05:26.305Z,98145.63
2023-01-17T11:08:05.931Z,98143.69
2023-01-17T11:10:38.041Z,98144.63
2023-01-17T11:13:05.804Z,98140.50
2023-01-17T11:15:33.633Z,98153.75
2023-01-17T11:18:05.764Z,98145.13
2023-01-17T11:20:37.169Z,98146.84
2023-01-17T11:23:12.501Z,98153.81
2023-01-17T11:25:38.960Z,98144.19
2023-01-17T11:28:22.973Z,98159.22
2023-01-17T11:31:22.689Z,98166.88
2023-01-17T11:33:50.359Z,98156.03
2023-01-17T11:36:29.402Z,98141.00
2023-01-17T11:39:02.762Z,98149.84
2023-01-17T11:41:39.455Z,98152.53
2023-01-17T11:44:34.283Z,98151.63
2023-01-17T11:47:17.918Z,98155.75
2023-01-17T11:49:46.235Z,98165.50
2023-01-17T11:52:26.447Z,98157.25
2023-01-17T11:54:54.140Z,98171.63
2023-01-17T11:57:32.203Z,98171.78
2023-01-17T12:00:20.460Z,98171.75
2023-01-17T12:03:00.842Z,98175.44
2023-01-17T12:05:42.472Z,98187.97
2023-01-17T12:08:27.811Z,98184.13
2023-01-17T12:10:56.915Z,98182.47
2023-01-17T12:13:23.192Z,98186.75
2023-01-17T12:15:49.553Z,98186.59
2023-01-17T12:18:44.952Z,98183.03
2023-01-17T12:21:21.533Z,98191.31
2023-01-17T12:24:06.151Z,98193.88
2023-01-17T12:27:07.930Z,98192.44
2023-01-17T12:29:47.947Z,98190.75
2023-01-17T12:32:17.471Z,98192.44
2023-01-17T12:34:47.630Z,98190.75
2023-01-17T12:37:37.878Z,98188.59
2023-01-17T12:40:43.786Z,98194.06
2023-01-17T12:43:15.472Z,98192.94
2023-01-17T12:45:47.528Z,98194.94
2023-01-17T12:48:20.848Z,98204.50
2023-01-17T12:51:06.955Z,98195.56
2023-01-17T12:53:48.410Z,98203.97
2023-01-17T12:56:26.890Z,98199.28
2023-01-17T12:59:03.772Z,98209.72
2023-01-17T13:01:32.573Z,98207.53
2023-01-17T13:04:17.064Z,98208.00
2023-01-17T13:06:58.670Z,98206.38
2023-01-17T13:09:25.164Z,98215.63
2023-01-17T13:11:54.863Z,98211.97
2023-01-17T13:14:21.313Z,98219.53
2023-01-17T13:17:17.435Z,98214.81
2023-01-17T13:19:55.471Z,98210.84
2023-01-17T13:22:22.156Z,98208.53
2023-01-17T13:25:03.471Z,98218.91
2023-01-17T13:27:46.509Z,98228.19
2023-01-17T13:30:30.843Z,98220.06
2023-01-17T13:33:06.838Z,98228.50
2023-01-17T13:35:40.773Z,98218.91
2023-01-17T13:38:47.910Z,98229.91
2023-01-17T13:41:48.113Z,98234.88
2023-01-17T13:44:14.605Z,98232.94
2023-01-17T13:46:56.310Z,98247.66
2023-01-17T13:49:28.860Z,98250.75
2023-01-17T13:52:01.353Z,98254.44
2023-01-17T13:54:31.821Z,98256.97
2023-01-17T13:57:23.063Z,98255.03
2023-01-17T13:59:49.781Z,98260.72
2023-01-17T14:02:31.491Z,98256.19
2023-01-17T14:05:09.898Z,98261.59
2023-01-17T14:07:52.400Z,98268.84
2023-01-17T14:10:41.534Z,98271.44
2023-01-17T14:13:36.608Z,98273.72
2023-01-17T14:16:33.190Z,98270.31
2023-01-17T14:18:59.669Z,98274.72
2023-01-17T14:21:30.408Z,98277.56
2023-01-17T14:24:06.226Z,98280.06
2023-01-17T14:26:35.256Z,98273.63
2023-01-17T14:29:39.953Z,98280.28
2023-01-17T14:32:08.953Z,98283.56
2023-01-17T14:34:35.380Z,98280.47
2023-01-17T14:37:31.361Z,98297.50
2023-01-17T14:39:57.965Z,98269.16
2023-01-17T14:42:25.155Z,98292.13
2023-01-17T14:45:05.552Z,98299.59
2023-01-17T14:47:37.524Z,98297.44
2023-01-17T14:50:26.336Z,98304.34
2023-01-17T14:53:11.288Z,98309.22
2023-01-17T14:55:38.426Z,98299.13
2023-01-17T14:58:04.885Z,98297.13
2023-01-17T15:00:31.353Z,98310.84
2023-01-17T15:02:58.150Z,98314.91
2023-01-17T15:05:25.298Z,98320.66
2023-01-17T15:07:53.553Z,98314.72
2023-01-17T15:10:30.645Z,98310.44
2023-01-17T15:12:57.557Z,98317.91
2023-01-17T15:15:34.802Z,98326.88
2023-01-17T15:18:18.409Z,98323.50
2023-01-17T15:21:11.886Z,98323.94
2023-01-17T15:23:40.416Z,98321.47
2023-01-17T15:26:07.275Z,98324.88
2023-01-17T15:28:34.326Z,98326.06
2023-01-17T15:31:06.303Z,98333.06
2023-01-17T15:33:37.622Z,98331.28
2023-01-17T15:36:32.078Z,98340.50
2023-01-17T15:39:26.579Z,98346.84
2023-01-17T15:41:53.681Z,98348.69
2023-01-17T15:44:49.988Z,98351.25
2023-01-17T15:47:43.005Z,98351.25
2023-01-17T15:50:21.380Z,98348.03
2023-01-17T15:52:51.799Z,98349.34
2023-01-17T15:55:37.088Z,98350.31
2023-01-17T15:58:04.203Z,98355.78
2023-01-17T16:00:36.215Z,98347.25
2023-01-17T16:03:33.224Z,98341.38
2023-01-17T16:06:00.465Z,98359.75
2023-01-17T16:08:32.282Z,98368.44
2023-01-17T16:11:00.680Z,98369.38
2023-01-17T16:13:27.462Z,98373.84
2023-01-17T16:15:53.894Z,98375.88
2023-01-17T16:18:24.074Z,98376.16
2023-01-17T16:21:20.413Z,98378.22
2023-01-17T16:23:46.920Z,98379.19
2023-01-17T16:26:13.352Z,98393.16
2023-01-17T16:28:39.798Z,98390.53
2023-01-17T16:31:06.270Z,98395.84
2023-01-17T16:33:32.802Z,98388.00
2023-01-17T16:35:59.222Z,98394.97
2023-01-17T16:38:25.854Z,98390.94
2023-01-17T16:40:52.281Z,98393.88
2023-01-17T16:43:19.002Z,98397.41
2023-01-17T16:45:46.939Z,98395.69
2023-01-17T16:48:14.792Z,98401.06
2023-01-17T16:50:45.722Z,98399.44
2023-01-17T16:53:12.205Z,98413.50
2023-01-17T16:55:39.096Z,98410.97
2023-01-17T16:58:05.593Z,98423.25
2023-01-17T17:00:32.060Z,98412.88
2023-01-17T17:02:58.533Z,98435.75
2023-01-17T17:05:25.045Z,98430.63
2023-01-17T17:07:51.931Z,98433.31
2023-01-17T17:10:19.627Z,98435.41
2023-01-17T17:12:46.071Z,98438.81
2023-01-17T17:15:12.769Z,98441.44
2023-01-17T17:17:40.792Z,98448.41
2023-01-17T17:20:08.631Z,98449.28
2023-01-17T17:22:35.080Z,98457.41
2023-01-17T17:25:03.127Z,98451.22
2023-01-17T17:27:29.580Z,98464.53
2023-01-17T17:29:56.050Z,98468.03
2023-01-17T17:32:22.506Z,98460.34
2023-01-17T17:34:49.015Z,98468.19
2023-01-17T17:37:15.483Z,98462.50
2023-01-17T17:39:42.121Z,98475.22
2023-01-17T17:42:15.560Z,98465.72
2023-01-17T17:44:42.153Z,98475.28
2023-01-17T17:47:09.244Z,98478.03
2023-01-17T17:49:35.698Z,98477.94
2023-01-17T17:52:08.314Z,98481.00
2023-01-17T17:54:34.996Z,98482.66
2023-01-17T17:57:01.545Z,98491.09
2023-01-17T17:59:28.004Z,98489.41
2023-01-17T18:01:54.543Z,98493.81
2023-01-17T18:04:21.167Z,98492.47
2023-01-17T18:06:47.627Z,98495.03
2023-01-17T18:09:14.132Z,98505.41
2023-01-17T18:11:41.563Z,98502.06
2023-01-17T18:14:08.889Z,98510.00
2023-01-17T18:16:37.067Z,98508.28
2023-01-17T18:19:03.798Z,98514.41
2023-01-17T18:21:37.000Z,98514.56
2023-01-17T18:24:05.337Z,98526.72
2023-01-17T18:26:38.652Z,98524.94
2023-01-17T18:29:06.505Z,98526.00
2023-01-17T18:31:33.285Z,98522.63
2023-01-17T18:34:01.133Z,98526.16
2023-01-17T18:36:27.755Z,98524.63
2023-01-17T18:38:54.228Z,98523.66
2023-01-17T18:41:27.434Z,98522.88
2023-01-17T18:43:53.906Z,98527.38
2023-01-17T18:46:20.465Z,98536.06
2023-01-17T18:48:46.954Z,98527.53
2023-01-17T18:51:14.755Z,98530.88
2023-01-17T18:53:42.132Z,98537.38
2023-01-17T18:56:10.338Z,98537.38
2023-01-17T18:58:38.850Z,98532.31
2023-01-17T19:01:09.319Z,98535.63
2023-01-17T19:03:36.020Z,98526.97
2023-01-17T19:06:03.351Z,98542.63
2023-01-17T19:08:30.625Z,98536.56
2023-01-17T19:10:57.320Z,98538.38
2023-01-17T19:13:23.908Z,98541.00
2023-01-17T19:15:50.420Z,98542.03
2023-01-17T19:18:19.436Z,98550.69
2023-01-17T19:20:45.935Z,98543.81
2023-01-17T19:23:12.421Z,98551.84
2023-01-17T19:25:38.840Z,98537.22
2023-01-17T19:28:05.249Z,98551.97
2023-01-17T19:30:31.701Z,98553.63
2023-01-17T19:32:58.185Z,98553.69
2023-01-17T19:35:26.960Z,98550.16
2023-01-17T19:37:53.655Z,98552.84
2023-01-17T19:40:20.281Z,98560.00
2023-01-17T19:42:47.055Z,98553.13
2023-01-17T19:45:14.124Z,98561.13
2023-01-17T19:47:40.668Z,98561.81
2023-01-17T19:50:08.162Z,98571.50
2023-01-17T19:52:35.385Z,98568.88
2023-01-17T19:55:02.225Z,98573.34
2023-01-17T19:57:31.801Z,98569.19
2023-01-17T20:00:01.812Z,98577.00
2023-01-17T20:02:28.741Z,98569.31
2023-01-17T20:04:55.390Z,98574.41
2023-01-17T20:07:21.900Z,98572.69
2023-01-17T20:09:48.345Z,98572.81
2023-01-17T20:12:17.972Z,98568.47
2023-01-17T20:14:45.719Z,98562.53
2023-01-17T20:17:12.872Z,98579.97
2023-01-17T20:19:39.420Z,98582.69
2023-01-17T20:22:05.910Z,98577.63
2023-01-17T20:24:32.401Z,98575.03
2023-01-17T20:27:00.101Z,98575.06
2023-01-17T20:29:26.609Z,98574.25
2023-01-17T20:31:53.072Z,98576.94
2023-01-17T20:34:19.641Z,98578.63
2023-01-17T20:36:46.117Z,98580.47
2023-01-17T20:39:14.242Z,98583.06
2023-01-17T20:41:41.724Z,98588.34
2023-01-17T20:44:12.960Z,98586.78
2023-01-17T20:46:40.829Z,98579.09
2023-01-17T20:49:11.479Z,98585.84
2023-01-17T20:51:37.974Z,98577.84
2023-01-17T20:54:04.719Z,98589.31
2023-01-17T20:56:31.381Z,98591.34
2023-01-17T20:58:57.925Z,98585.94
2023-01-17T21:01:24.507Z,98583.75
2023-01-17T21:03:51.509Z,98591.41
2023-01-17T21:06:18.680Z,98571.53
2023-01-17T21:08:45.484Z,98592.28
2023-01-17T21:11:13.507Z,98594.97
2023-01-17T21:13:39.991Z,98592.38
2023-01-17T21:16:07.226Z,98584.66
2023-01-17T21:18:33.701Z,98589.94
2023-01-17T21:21:04.418Z,98597.03
2023-01-17T21:23:31.050Z,98590.84
2023-01-17T21:25:57.593Z,98596.16
2023-01-17T21:28:25.097Z,98580.66
2023-01-17T21:30:52.267Z,98594.44
2023-01-17T21:33:19.149Z,98602.47
2023-01-17T21:35:45.724Z,98604.19
2023-01-17T21:38:12.238Z,98612.16
2023-01-17T21:40:38.774Z,98616.50
2023-01-17T21:43:05.300Z,98614.78
2023-01-17T21:45:32.044Z,98619.13
2023-01-17T21:47:59.013Z,98614.88
2023-01-17T21:50:33.296Z,98614.00
2023-01-17T21:53:00.149Z,98625.38
2023-01-17T21:55:26.669Z,98618.28
2023-01-17T21:57:53.197Z,98620.97
2023-01-17T22:00:19.773Z,98618.31
2023-01-17T22:02:46.962Z,98628.75
2023-01-17T22:05:13.749Z,98629.75
2023-01-17T22:07:40.412Z,98632.34
2023-01-17T22:10:07.075Z,98635.09
2023-01-17T22:12:33.648Z,98648.06
2023-01-17T22:15:00.158Z,98642.13
2023-01-17T22:17:26.639Z,98654.41
2023-01-17T22:19:53.050Z,98656.13
2023-01-17T22:22:19.477Z,98656.25
2023-01-17T22:24:45.924Z,98665.69
2023-01-17T22:27:12.380Z,98670.97
2023-01-17T22:29:38.830Z,98671.94
2023-01-17T22:32:05.382Z,98685.19
2023-01-17T22:34:31.843Z,98689.56
2023-01-17T22:36:58.298Z,98687.69
2023-01-17T22:39:24.789Z,98683.44
2023-01-17T22:41:51.251Z,98690.28
2023-01-17T22:44:17.680Z,98690.28
2023-01-17T22:46:44.221Z,98698.88
2023-01-17T22:49:12.534Z,98686.72
2023-01-17T22:51:38.994Z,98683.22
2023-01-17T22:54:05.482Z,98685.94
2023-01-17T22:56:32.596Z,98683.41
2023-01-17T22:58:59.781Z,98686.03
2023-01-17T23:01:27.921Z,98684.19
2023-01-17T23:04:02.046Z,98678.31
2023-01-17T23:06:30.681Z,98696.41
2023-01-17T23:08:59.154Z,98691.19
2023-01-17T23:11:32.224Z,98693.00
2023-01-17T23:13:58.658Z,98685.09
2023-01-17T23:16:25.070Z,98683.19
2023-01-17T23:18:51.487Z,98685.94
2023-01-17T23:21:17.869Z,98692.91
2023-01-17T23:23:44.405Z,98696.44
2023-01-17T23:26:10.798Z,98687.88
2023-01-17T23:28:37.261Z,98694.69
2023-01-17T23:31:03.745Z,98707.00
2023-01-17T23:33:30.191Z,98713.91
2023-01-17T23:35:56.603Z,98719.34
2023-01-17T23:38:23.087Z,98721.16
2023-01-17T23:40:49.607Z,98711.53
2023-01-17T23:43:16.051Z,98717.56
2023-01-17T23:45:42.507Z,98719.41
2023-01-17T23:48:09.156Z,98713.19
2023-01-17T23:50:36.524Z,98722.97
2023-01-17T23:53:02.945Z,98722.97
2023-01-17T23:55:29.359Z,98728.25
2023-01-17T23:57:55.764Z,98731.78
